createdAt,value
2023-02-11T00:02:31.144Z,66.70
2023-02-11T00:05:14.132Z,66.61
2023-02-11T00:08:09.323Z,66.73
2023-02-11T00:11:04.299Z,66.90
2023-02-11T00:13:39.256Z,67.00
2023-02-11T00:16:28.197Z,67.01
2023-02-11T00:19:11.290Z,67.22
2023-02-11T00:21:59.185Z,67.47
2023-02-11T00:24:34.525Z,67.67
2023-02-11T00:27:22.117Z,67.90
2023-02-11T00:29:57.295Z,68.05
2023-02-11T00:32:45.638Z,68.16
2023-02-11T00:35:20.261Z,68.20
2023-02-11T00:38:15.138Z,68.45
2023-02-11T00:41:03.197Z,68.52
2023-02-11T00:43:45.145Z,68.55
2023-02-11T00:46:40.149Z,68.62
2023-02-11T00:49:28.440Z,68.74
2023-02-11T00:52:10.437Z,68.77
2023-02-11T00:54:51.615Z,68.78
2023-02-11T00:57:39.164Z,68.60
2023-02-11T01:00:21.105Z,68.71
2023-02-11T01:03:02.317Z,68.68
2023-02-11T01:05:44.111Z,68.82
2023-02-11T01:08:26.264Z,68.94
2023-02-11T01:11:10.106Z,69.06
2023-02-11T01:13:58.205Z,69.22
2023-02-11T01:16:32.531Z,69.44
2023-02-11T01:19:20.149Z,69.59
2023-02-11T01:21:54.769Z,69.83
2023-02-11T01:24:43.095Z,69.98
2023-02-11T01:27:24.190Z,70.18
2023-02-11T01:30:05.264Z,70.22
2023-02-11T01:32:47.090Z,70.61
2023-02-11T01:35:28.288Z,70.96
2023-02-11T01:38:10.135Z,71.14
2023-02-11T01:41:00.320Z,71.22
2023-02-11T01:43:48.168Z,71.29
2023-02-11T01:46:49.173Z,71.14
2023-02-11T01:50:12.098Z,71.06
2023-02-11T01:53:00.137Z,71.24
2023-02-11T01:55:53.712Z,71.34
2023-02-11T01:58:43.080Z,71.71
2023-02-11T02:01:20.253Z,72.08
2023-02-11T02:04:09.102Z,72.84
2023-02-11T02:07:03.475Z,73.09
2023-02-11T02:09:55.090Z,72.93
2023-02-11T02:12:36.205Z,72.96
2023-02-11T02:15:29.111Z,72.52
2023-02-11T02:18:48.973Z,72.19
2023-02-11T02:21:52.189Z,72.14
2023-02-11T02:24:49.243Z,72.01
2023-02-11T02:27:39.136Z,72.19
2023-02-11T02:31:03.445Z,71.95
2023-02-11T02:33:53.082Z,71.80
2023-02-11T02:36:57.101Z,71.79
2023-02-11T02:39:45.138Z,71.75
2023-02-11T02:42:27.133Z,71.70
2023-02-11T02:45:09.821Z,71.56
2023-02-11T02:47:58.094Z,71.58
2023-02-11T02:50:35.690Z,71.58
2023-02-11T02:53:46.161Z,71.74
2023-02-11T02:56:40.748Z,71.83
2023-02-11T02:59:36.167Z,72.05
2023-02-11T03:02:32.094Z,72.37
2023-02-11T03:05:58.113Z,72.92
2023-02-11T03:08:41.669Z,73.21
2023-02-11T03:11:32.086Z,73.54
2023-02-11T03:14:11.111Z,73.53
2023-02-11T03:17:00.056Z,73.27
2023-02-11T03:19:43.665Z,73.25
2023-02-11T03:22:36.106Z,73.55
2023-02-11T03:25:31.109Z,73.82
2023-02-11T03:28:37.053Z,74.14
2023-02-11T03:31:22.306Z,74.49
2023-02-11T03:34:32.093Z,74.82
2023-02-11T03:37:37.014Z,74.86
2023-02-11T03:40:36.061Z,75.13
2023-02-11T03:43:18.222Z,75.04
2023-02-11T03:46:06.112Z,74.53
2023-02-11T03:48:48.266Z,74.17
2023-02-11T03:51:37.118Z,73.94
2023-02-11T03:54:23.112Z,73.95
2023-02-11T03:57:11.147Z,73.55
2023-02-11T04:00:11.062Z,73.43
2023-02-11T04:02:59.139Z,73.19
2023-02-11T04:05:41.210Z,73.07
2023-02-11T04:08:23.099Z,72.90
2023-02-11T04:11:04.279Z,73.00
2023-02-11T04:13:46.076Z,73.24
2023-02-11T04:16:27.243Z,73.76
2023-02-11T04:19:08.046Z,74.09
2023-02-11T04:21:56.054Z,74.36
2023-02-11T04:24:37.133Z,74.50
2023-02-11T04:27:25.041Z,74.84
2023-02-11T04:30:06.142Z,75.07
2023-02-11T04:32:47.218Z,75.46
2023-02-11T04:35:29.112Z,75.55
2023-02-11T04:38:24.116Z,75.57
2023-02-11T04:41:19.035Z,75.55
2023-02-11T04:44:07.039Z,75.38
2023-02-11T04:46:42.154Z,75.01
2023-02-11T04:49:30.130Z,74.69
2023-02-11T04:52:05.576Z,74.29
2023-02-11T04:54:53.097Z,74.22
2023-02-11T04:57:28.257Z,74.01
2023-02-11T05:00:17.041Z,73.67
2023-02-11T05:02:59.092Z,73.25
2023-02-11T05:05:55.041Z,73.09
2023-02-11T05:08:43.051Z,73.01
2023-02-11T05:11:33.159Z,72.94
2023-02-11T05:14:21.076Z,72.83
2023-02-11T05:16:56.257Z,72.84
2023-02-11T05:19:44.048Z,73.26
2023-02-11T05:22:20.119Z,73.23
2023-02-11T05:25:08.023Z,72.94
2023-02-11T05:27:50.008Z,72.70
2023-02-11T05:30:38.054Z,72.35
2023-02-11T05:33:20.011Z,72.24
2023-02-11T05:36:14.021Z,72.00
2023-02-11T05:38:56.049Z,71.86
2023-02-11T05:41:45.046Z,71.45
2023-02-11T05:44:20.248Z,71.26
2023-02-11T05:47:08.082Z,71.10
2023-02-11T05:49:43.219Z,70.81
2023-02-11T05:52:31.000Z,71.43
2023-02-11T05:55:05.151Z,72.12
2023-02-11T05:57:53.102Z,72.54
2023-02-11T06:00:28.138Z,73.16
2023-02-11T06:03:16.083Z,73.48
2023-02-11T06:05:57.151Z,73.38
2023-02-11T06:08:39.311Z,73.39
2023-02-11T06:11:31.003Z,73.90
2023-02-11T06:14:05.910Z,74.13
2023-02-11T06:16:54.046Z,73.85
2023-02-11T06:19:28.872Z,73.39
2023-02-11T06:22:17.036Z,72.97
2023-02-11T06:25:01.319Z,72.73
2023-02-11T06:27:50.995Z,72.44
2023-02-11T06:30:25.408Z,72.17
2023-02-11T06:33:13.100Z,71.80
2023-02-11T06:35:47.517Z,71.74
2023-02-11T06:38:35.046Z,71.57
2023-02-11T06:41:17.996Z,71.37
2023-02-11T06:44:07.013Z,71.13
2023-02-11T06:46:41.519Z,70.79
2023-02-11T06:49:29.074Z,70.63
2023-02-11T06:52:03.801Z,70.26
2023-02-11T06:54:53.069Z,69.99
2023-02-11T06:57:33.978Z,69.79
2023-02-11T07:00:16.116Z,69.26
2023-02-11T07:02:57.130Z,69.07
2023-02-11T07:05:46.002Z,68.75
2023-02-11T07:08:27.049Z,68.23
2023-02-11T07:11:08.125Z,67.93
2023-02-11T07:13:51.403Z,67.71
2023-02-11T07:16:33.275Z,67.53
2023-02-11T07:19:14.999Z,67.27
2023-02-11T07:21:56.200Z,67.31
2023-02-11T07:24:36.975Z,67.34
2023-02-11T07:27:18.114Z,67.54
2023-02-11T07:29:58.985Z,67.74
2023-02-11T07:32:40.125Z,67.84
2023-02-11T07:35:21.939Z,67.64
2023-02-11T07:38:03.096Z,67.57
2023-02-11T07:40:50.948Z,67.48
2023-02-11T07:43:25.060Z,67.51
2023-02-11T07:46:15.005Z,67.34
2023-02-11T07:48:56.939Z,67.37
2023-02-11T07:51:52.936Z,67.19
2023-02-11T07:54:40.974Z,67.30
2023-02-11T07:57:22.103Z,67.11
2023-02-11T08:00:02.938Z,67.17
2023-02-11T08:02:45.052Z,66.81
2023-02-11T08:05:25.986Z,66.67
2023-02-11T08:08:13.972Z,66.71
2023-02-11T08:10:49.024Z,66.61
2023-02-11T08:13:36.928Z,66.53
2023-02-11T08:16:29.004Z,66.54
2023-02-11T08:19:15.146Z,66.51
2023-02-11T08:21:56.980Z,66.31
2023-02-11T08:24:44.983Z,65.99
2023-02-11T08:27:19.908Z,66.27
2023-02-11T08:30:08.955Z,65.76
2023-02-11T08:32:43.366Z,65.80
2023-02-11T08:35:31.961Z,65.69
2023-02-11T08:38:12.973Z,65.35
2023-02-11T08:40:54.091Z,65.24
2023-02-11T08:43:34.977Z,65.01
2023-02-11T08:46:20.199Z,65.15
2023-02-11T08:49:07.963Z,64.82
2023-02-11T08:51:43.130Z,64.57
2023-02-11T08:54:30.943Z,64.40
2023-02-11T08:57:12.972Z,63.92
2023-02-11T09:00:00.962Z,63.70
2023-02-11T09:02:36.198Z,63.33
2023-02-11T09:05:24.297Z,63.28
2023-02-11T09:08:05.946Z,62.87
2023-02-11T09:11:00.965Z,62.18
2023-02-11T09:13:52.579Z,61.43
2023-02-11T09:16:35.100Z,61.20
2023-02-11T09:19:23.949Z,60.07
2023-02-11T09:21:59.168Z,59.90
2023-02-11T09:24:46.921Z,59.49
2023-02-11T09:27:28.943Z,59.39
2023-02-11T09:30:24.981Z,57.80
2023-02-11T09:33:12.936Z,57.29
2023-02-11T09:35:47.030Z,56.81
2023-02-11T09:38:41.953Z,56.52
2023-02-11T09:41:29.936Z,56.14
2023-02-11T09:44:08.089Z,56.33
2023-02-11T09:47:05.938Z,55.94
2023-02-11T09:49:52.121Z,55.80
2023-02-11T09:52:45.955Z,56.12
2023-02-11T09:55:43.961Z,56.30
2023-02-11T09:58:42.933Z,56.24
2023-02-11T10:01:37.030Z,55.73
2023-02-11T10:04:31.116Z,55.52
2023-02-11T10:07:25.925Z,55.33
2023-02-11T10:10:31.107Z,54.97
2023-02-11T10:13:42.646Z,54.77
2023-02-11T10:17:09.894Z,54.22
2023-02-11T10:20:10.152Z,53.46
2023-02-11T10:22:49.693Z,53.45
2023-02-11T10:25:45.449Z,53.53
2023-02-11T10:28:26.146Z,53.32
2023-02-11T10:31:18.127Z,53.52
2023-02-11T10:37:16.951Z,53.98
2023-02-11T10:39:58.401Z,54.15
2023-02-11T10:42:47.089Z,54.20
2023-02-11T10:45:34.102Z,54.53
2023-02-11T10:48:56.237Z,54.94
2023-02-11T10:51:42.609Z,55.05
2023-02-11T10:54:33.371Z,54.59
2023-02-11T10:57:19.063Z,54.49
2023-02-11T11:00:11.941Z,54.11
2023-02-11T11:02:53.081Z,53.56
2023-02-11T11:05:41.887Z,53.56
2023-02-11T11:08:23.937Z,53.23
2023-02-11T11:11:19.160Z,52.40
2023-02-11T11:14:04.944Z,52.98
2023-02-11T11:16:46.057Z,52.55
2023-02-11T11:19:31.934Z,52.66
2023-02-11T11:22:20.110Z,52.88
2023-02-11T11:24:57.609Z,52.46
2023-02-11T11:27:46.933Z,51.85
2023-02-11T11:30:25.847Z,50.88
2023-02-11T11:33:15.027Z,50.84
2023-02-11T11:36:01.074Z,51.25
2023-02-11T11:38:52.062Z,51.46
2023-02-11T11:41:34.181Z,51.44
2023-02-11T11:44:42.922Z,52.24
2023-02-11T11:47:38.189Z,52.78
2023-02-11T11:50:38.132Z,52.96
2023-02-11T11:53:25.943Z,53.69
2023-02-11T11:56:26.082Z,53.94
2023-02-11T11:59:12.910Z,54.46
2023-02-11T12:02:26.165Z,55.07
2023-02-11T12:05:27.862Z,55.42
2023-02-11T12:08:30.928Z,56.09
2023-02-11T12:11:14.488Z,56.65
2023-02-11T12:14:07.954Z,57.29
2023-02-11T12:17:18.929Z,57.88
2023-02-11T12:20:20.034Z,58.58
2023-02-11T12:23:03.928Z,59.07
2023-02-11T12:26:04.031Z,59.15
2023-02-11T12:28:56.927Z,59.24
2023-02-11T12:32:14.247Z,59.37
2023-02-11T12:35:19.929Z,59.82
2023-02-11T12:38:31.253Z,60.13
2023-02-11T12:41:52.917Z,60.37
2023-02-11T12:45:05.914Z,60.88
2023-02-11T12:48:15.019Z,61.09
2023-02-11T12:51:40.926Z,61.17
2023-02-11T12:54:53.069Z,61.61
2023-02-11T12:57:43.916Z,61.79
2023-02-11T13:00:38.155Z,62.33
2023-02-11T13:03:28.122Z,62.26
2023-02-11T13:06:07.270Z,62.11
2023-02-11T13:09:07.092Z,62.50
2023-02-11T13:11:52.214Z,62.74
2023-02-11T13:14:48.086Z,63.21
2023-02-11T13:17:42.777Z,63.21
2023-02-11T13:20:49.109Z,63.52
2023-02-11T13:23:31.557Z,64.14
2023-02-11T13:26:31.861Z,64.62
2023-02-11T13:29:29.917Z,64.68
2023-02-11T13:32:19.894Z,64.87
2023-02-11T13:35:04.033Z,64.98
2023-02-11T13:37:47.216Z,65.06
2023-02-11T13:40:38.044Z,65.29
2023-02-11T13:43:31.895Z,65.46
2023-02-11T13:46:16.031Z,65.67
2023-02-11T13:48:58.909Z,65.80
2023-02-11T13:51:55.887Z,66.09
2023-02-11T13:54:45.904Z,66.30
2023-02-11T13:57:27.030Z,66.50
2023-02-11T14:00:42.919Z,66.82
2023-02-11T14:03:45.538Z,67.13
2023-02-11T14:06:50.902Z,67.47
2023-02-11T14:09:47.009Z,67.91
2023-02-11T14:12:41.090Z,68.54
2023-02-11T14:15:33.904Z,68.94
2023-02-11T14:19:00.884Z,69.04
2023-02-11T14:21:50.103Z,69.49
2023-02-11T14:24:32.100Z,69.53
2023-02-11T14:27:46.914Z,69.75
2023-02-11T14:31:06.990Z,70.35
2023-02-11T14:33:51.084Z,71.24
2023-02-11T14:36:59.091Z,71.52
2023-02-11T14:40:28.098Z,72.02
2023-02-11T14:43:48.881Z,72.53
2023-02-11T14:46:27.491Z,73.09
2023-02-11T14:49:25.895Z,73.32
2023-02-11T14:52:15.911Z,73.80
2023-02-11T14:55:43.930Z,74.43
2023-02-11T14:58:34.893Z,74.85
2023-02-11T15:01:36.006Z,75.30
2023-02-11T15:04:36.927Z,75.60
2023-02-11T15:07:20.928Z,76.02
2023-02-11T15:10:15.888Z,76.46
2023-02-11T15:13:05.055Z,76.94
2023-02-11T15:15:41.462Z,77.23
2023-02-11T15:18:32.912Z,77.45
2023-02-11T15:21:08.760Z,77.57
2023-02-11T15:24:08.713Z,77.72
2023-02-11T15:26:44.216Z,78.23
2023-02-11T15:29:44.876Z,78.67
2023-02-11T15:32:25.186Z,78.90
2023-02-11T15:35:17.929Z,79.23
2023-02-11T15:37:59.909Z,79.57
2023-02-11T15:41:10.220Z,80.03
2023-02-11T15:44:05.889Z,80.08
2023-02-11T15:46:55.720Z,80.06
2023-02-11T15:49:32.226Z,80.44
2023-02-11T15:52:21.948Z,80.53
2023-02-11T15:55:03.877Z,80.66
2023-02-11T15:58:10.967Z,80.63
2023-02-11T16:01:06.887Z,80.89
2023-02-11T16:03:42.066Z,80.92
2023-02-11T16:06:42.122Z,81.09
2023-02-11T16:09:16.998Z,81.17
2023-02-11T16:12:09.897Z,81.28
2023-02-11T16:14:50.906Z,81.36
2023-02-11T16:17:38.947Z,81.26
2023-02-11T16:20:24.009Z,81.83
2023-02-11T16:23:13.896Z,81.82
2023-02-11T16:25:49.616Z,81.79
2023-02-11T16:28:37.980Z,81.87
2023-02-11T16:31:19.993Z,82.12
2023-02-11T16:34:03.345Z,82.11
2023-02-11T16:36:53.916Z,82.04
2023-02-11T16:39:28.438Z,81.78
2023-02-11T16:42:17.061Z,82.03
2023-02-11T16:44:58.068Z,82.01
2023-02-11T16:47:42.448Z,82.07
2023-02-11T16:50:31.934Z,82.07
2023-02-11T16:53:13.186Z,81.99
2023-02-11T16:55:57.887Z,81.97
2023-02-11T16:58:39.094Z,81.96
2023-02-11T17:01:19.912Z,81.94
2023-02-11T17:04:07.951Z,82.01
2023-02-11T17:06:42.460Z,81.76
2023-02-11T17:09:38.016Z,81.89
2023-02-11T17:12:12.375Z,81.94
2023-02-11T17:15:00.891Z,81.71
2023-02-11T17:17:35.498Z,81.65
2023-02-11T17:20:26.849Z,81.63
2023-02-11T17:23:01.481Z,81.70
2023-02-11T17:25:51.054Z,81.72
2023-02-11T17:28:26.404Z,81.62
2023-02-11T17:31:16.475Z,81.56
2023-02-11T17:33:59.052Z,81.71
2023-02-11T17:36:41.922Z,81.68
2023-02-11T17:39:23.853Z,81.88
2023-02-11T17:42:06.178Z,81.88
2023-02-11T17:44:47.860Z,81.86
2023-02-11T17:47:29.042Z,81.94
2023-02-11T17:50:17.014Z,81.90
2023-02-11T17:52:59.059Z,81.83
2023-02-11T17:55:54.055Z,81.89
2023-02-11T17:58:41.853Z,82.08
2023-02-11T18:01:17.067Z,82.25
2023-02-11T18:04:04.874Z,82.49
2023-02-11T18:06:41.262Z,82.57
2023-02-11T18:09:28.871Z,82.63
2023-02-11T18:12:04.396Z,82.85
2023-02-11T18:14:51.875Z,82.66
2023-02-11T18:17:35.056Z,82.56
2023-02-11T18:20:29.873Z,82.65
2023-02-11T18:23:17.845Z,82.70
2023-02-11T18:25:54.204Z,82.65
2023-02-11T18:28:45.279Z,82.85
2023-02-11T18:31:29.673Z,82.90
2023-02-11T18:34:15.999Z,82.76
2023-02-11T18:36:57.274Z,82.96
2023-02-11T18:39:41.868Z,83.04
2023-02-11T18:42:28.477Z,82.97
2023-02-11T18:45:14.393Z,83.10
2023-02-11T18:48:02.883Z,83.14
2023-02-11T18:50:37.643Z,83.36
2023-02-11T18:53:27.964Z,83.25
2023-02-11T18:56:08.763Z,83.09
2023-02-11T18:58:57.845Z,83.32
2023-02-11T19:01:41.012Z,83.47
2023-02-11T19:04:29.934Z,83.64
2023-02-11T19:07:06.068Z,83.46
2023-02-11T19:09:55.451Z,83.44
2023-02-11T19:12:32.024Z,83.54
2023-02-11T19:15:21.843Z,83.68
2023-02-11T19:17:56.520Z,83.89
2023-02-11T19:20:45.120Z,84.00
2023-02-11T19:23:20.285Z,83.83
2023-02-11T19:26:13.044Z,83.74
2023-02-11T19:28:54.026Z,83.77
2023-02-11T19:31:43.117Z,83.72
2023-02-11T19:34:21.413Z,83.68
2023-02-11T19:37:09.784Z,83.61
2023-02-11T19:39:50.973Z,83.68
2023-02-11T19:42:32.843Z,83.65
2023-02-11T19:45:28.027Z,83.58
2023-02-11T19:48:19.545Z,83.54
2023-02-11T19:50:55.396Z,83.58
2023-02-11T19:53:45.038Z,83.75
2023-02-11T19:56:29.815Z,83.82
2023-02-11T19:59:20.465Z,83.77
2023-02-11T20:02:01.864Z,83.62
2023-02-11T20:04:49.867Z,83.58
2023-02-11T20:07:25.061Z,83.68
2023-02-11T20:10:13.818Z,83.74
2023-02-11T20:12:55.837Z,83.72
2023-02-11T20:15:54.401Z,83.60
2023-02-11T20:18:42.843Z,83.53
2023-02-11T20:21:31.500Z,83.97
2023-02-11T20:24:19.857Z,83.89
2023-02-11T20:27:00.994Z,83.85
2023-02-11T20:29:42.779Z,83.89
2023-02-11T20:32:32.776Z,84.05
2023-02-11T20:35:14.821Z,83.94
2023-02-11T20:37:56.422Z,83.89
2023-02-11T20:40:37.849Z,83.87
2023-02-11T20:43:19.033Z,83.98
2023-02-11T20:45:59.902Z,83.85
2023-02-11T20:48:42.042Z,83.81
2023-02-11T20:51:36.033Z,83.85
2023-02-11T20:54:28.819Z,83.75
2023-02-11T20:57:03.248Z,83.60
2023-02-11T20:59:50.845Z,83.80
2023-02-11T21:02:26.392Z,83.69
2023-02-11T21:05:13.996Z,83.49
2023-02-11T21:07:49.326Z,83.56
2023-02-11T21:10:37.823Z,83.51
2023-02-11T21:13:19.001Z,83.65
2023-02-11T21:16:03.057Z,83.72
2023-02-11T21:18:45.815Z,83.59
2023-02-11T21:21:29.152Z,83.68
2023-02-11T21:24:11.845Z,83.70
2023-02-11T21:26:53.319Z,83.81
2023-02-11T21:29:40.452Z,83.88
2023-02-11T21:32:26.980Z,83.85
2023-02-11T21:35:07.951Z,83.76
2023-02-11T21:37:55.816Z,83.70
2023-02-11T21:40:36.814Z,83.54
2023-02-11T21:43:17.984Z,83.36
2023-02-11T21:46:01.999Z,83.34
2023-02-11T21:48:50.841Z,83.23
2023-02-11T21:51:26.087Z,83.00
2023-02-11T21:54:14.952Z,82.99
2023-02-11T21:56:58.830Z,83.03
2023-02-11T21:59:40.072Z,83.17
2023-02-11T22:02:22.033Z,83.30
2023-02-11T22:05:03.329Z,83.42
2023-02-11T22:07:44.807Z,83.48
2023-02-11T22:10:26.230Z,83.47
2023-02-11T22:13:07.805Z,83.55
2023-02-11T22:15:48.946Z,83.53
2023-02-11T22:18:29.808Z,83.51
2023-02-11T22:21:23.847Z,83.48
2023-02-11T22:24:05.016Z,83.70
2023-02-11T22:26:46.151Z,83.69
2023-02-11T22:29:33.922Z,83.55
2023-02-11T22:32:09.016Z,83.56
2023-02-11T22:34:56.817Z,83.65
2023-02-11T22:37:31.971Z,83.73
2023-02-11T22:40:20.780Z,83.80
2023-02-11T22:42:55.967Z,83.82
2023-02-11T22:45:43.828Z,83.74
2023-02-11T22:48:22.107Z,83.53
2023-02-11T22:51:22.811Z,83.63
2023-02-11T22:54:10.808Z,83.61
2023-02-11T22:56:58.793Z,83.76
2023-02-11T22:59:32.917Z,83.68
2023-02-11T23:02:21.005Z,83.53
2023-02-11T23:05:02.788Z,83.63
2023-02-11T23:07:50.812Z,83.43
2023-02-11T23:10:32.911Z,83.41
2023-02-11T23:13:20.800Z,83.31
2023-02-11T23:15:56.054Z,83.16
2023-02-11T23:18:44.783Z,83.13
2023-02-11T23:21:23.928Z,83.00
2023-02-11T23:24:13.865Z,82.93
2023-02-11T23:27:01.913Z,82.94
2023-02-11T23:29:37.386Z,82.86
2023-02-11T23:32:26.022Z,82.90
2023-02-11T23:35:01.192Z,82.71
2023-02-11T23:37:48.780Z,82.67
2023-02-11T23:40:37.045Z,82.58
2023-02-11T23:43:24.784Z,82.67
2023-02-11T23:45:59.321Z,82.59
2023-02-11T23:48:46.830Z,82.58
2023-02-11T23:51:25.166Z,82.45
2023-02-11T23:54:13.809Z,82.51
2023-02-11T23:56:48.937Z,82.68
2023-02-11T23:59:36.795Z,82.79
